Aviation Digital Data Service (ADDS)

Output produced by METARs form (0141 UTC 22 February 2019)
found at http://www.aviationweather.gov/metar/data/
 
METAR text: LTFJ 220120Z 06004KT 1500 0600NE R06/P1500U R24/P1500N BCFG FEW008 02/02 Q1022 TEMPO 0700 FG VV003
Conditions at: LTFJ (SABIHA GOKCEN , TR) observed 0120 UTC 22 February 2019
Temperature: 2.0°C (36°F)
Dewpoint: 2.0°C (36°F) [RH = 100%]
Pressure (altimeter): 30.18 inches Hg (1022.0 mb)
Winds: from the ENE (60 degrees) at 5 MPH (4 knots; 2.1 m/s)
Visibility: 0.93 miles (1.50 km)
Ceiling: at least 12,000 feet AGL
Clouds: few clouds at 800 feet AGL
Weather: BCFG  (patches of fog)

METAR text: LTFJ 220050Z 05005KT 1200 0500NE R06/P1500U R24/0900N BCFG FEW008 02/01 Q1022 TEMPO 0700 FG VV003
Conditions at: LTFJ (SABIHA GOKCEN , TR) observed 0050 UTC 22 February 2019
Temperature: 2.0°C (36°F)
Dewpoint: 1.0°C (34°F) [RH = 93%]
Pressure (altimeter): 30.18 inches Hg (1022.0 mb)
Winds: from the NE (50 degrees) at 6 MPH (5 knots; 2.6 m/s)
Visibility: 0.75 miles (1.21 km)
Ceiling: at least 12,000 feet AGL
Clouds: few clouds at 800 feet AGL
Weather: BCFG  (patches of fog)

METAR text: LTFJ 220020Z 05005KT 2200 1100NE R06/P1500U R24/1200U BR FEW009 SCT090 03/02 Q1023 NOSIG
Conditions at: LTFJ (SABIHA GOKCEN , TR) observed 0020 UTC 22 February 2019
Temperature: 3.0°C (37°F)
Dewpoint: 2.0°C (36°F) [RH = 93%]
Pressure (altimeter): 30.21 inches Hg (1023.0 mb)
Winds: from the NE (50 degrees) at 6 MPH (5 knots; 2.6 m/s)
Visibility: 1.37 miles (2.20 km)
Ceiling: at least 12,000 feet AGL
Clouds: few clouds at 900 feet AGL
scattered clouds at 9000 feet AGL
Weather: BR  (mist)

METAR text: LTFJ 212350Z 07004KT 3500 BR FEW015 SCT090 03/02 Q1023 NOSIG RMK RWY24 05004KT 020V080
Conditions at: LTFJ (SABIHA GOKCEN , TR) observed 2350 UTC 21 February 2019
Temperature: 3.0°C (37°F)
Dewpoint: 2.0°C (36°F) [RH = 93%]
Pressure (altimeter): 30.21 inches Hg (1023.0 mb)
Winds: from the ENE (70 degrees) at 5 MPH (4 knots; 2.1 m/s)
Visibility: 2.17 miles (3.49 km)
Ceiling: at least 12,000 feet AGL
Clouds: few clouds at 1500 feet AGL
scattered clouds at 9000 feet AGL
Weather: BR  (mist)

METAR text: LTFJ 212320Z 05006KT 3500 BR FEW015 SCT070 04/03 Q1023 NOSIG RMK RWY24 03005KT
Conditions at: LTFJ (SABIHA GOKCEN , TR) observed 2320 UTC 21 February 2019
Temperature: 4.0°C (39°F)
Dewpoint: 3.0°C (37°F) [RH = 93%]
Pressure (altimeter): 30.21 inches Hg (1023.0 mb)
Winds: from the NE (50 degrees) at 7 MPH (6 knots; 3.1 m/s)
Visibility: 2.17 miles (3.49 km)
Ceiling: at least 12,000 feet AGL
Clouds: few clouds at 1500 feet AGL
scattered clouds at 7000 feet AGL
Weather: BR  (mist)

METAR text: LTFJ 212250Z 04007KT 3500 BR FEW015 SCT100 04/03 Q1023 NOSIG RMK RWY24 02006KT
Conditions at: LTFJ (SABIHA GOKCEN , TR) observed 2250 UTC 21 February 2019
Temperature: 4.0°C (39°F)
Dewpoint: 3.0°C (37°F) [RH = 93%]
Pressure (altimeter): 30.21 inches Hg (1023.0 mb)
Winds: from the NE (40 degrees) at 8 MPH (7 knots; 3.6 m/s)
Visibility: 2.17 miles (3.49 km)
Ceiling: at least 12,000 feet AGL
Clouds: few clouds at 1500 feet AGL
scattered clouds at 10000 feet AGL
Weather: BR  (mist)

METAR text: LTFJ 212220Z 05007KT 4000 BR FEW015 SCT100 03/03 Q1023 NOSIG RMK RWY24 04005KT
Conditions at: LTFJ (SABIHA GOKCEN , TR) observed 2220 UTC 21 February 2019
Temperature: 3.0°C (37°F)
Dewpoint: 3.0°C (37°F) [RH = 100%]
Pressure (altimeter): 30.21 inches Hg (1023.0 mb)
Winds: from the NE (50 degrees) at 8 MPH (7 knots; 3.6 m/s)
Visibility: 2.49 miles (4.01 km)
Ceiling: at least 12,000 feet AGL
Clouds: few clouds at 1500 feet AGL
scattered clouds at 10000 feet AGL
Weather: BR  (mist)

METAR text: LTFJ 212150Z 05006KT 4500 BR FEW013 SCT100 04/03 Q1023 NOSIG RMK RWY24 03004KT
Conditions at: LTFJ (SABIHA GOKCEN , TR) observed 2150 UTC 21 February 2019
Temperature: 4.0°C (39°F)
Dewpoint: 3.0°C (37°F) [RH = 93%]
Pressure (altimeter): 30.21 inches Hg (1023.0 mb)
Winds: from the NE (50 degrees) at 7 MPH (6 knots; 3.1 m/s)
Visibility: 2.80 miles (4.51 km)
Ceiling: at least 12,000 feet AGL
Clouds: few clouds at 1300 feet AGL
scattered clouds at 10000 feet AGL
Weather: BR  (mist)

METAR text: LTFJ 212120Z 04007KT 4900 BR FEW009 SCT100 05/03 Q1023 NOSIG RMK RWY24 VRB02KT
Conditions at: LTFJ (SABIHA GOKCEN , TR) observed 2120 UTC 21 February 2019
Temperature: 5.0°C (41°F)
Dewpoint: 3.0°C (37°F) [RH = 87%]
Pressure (altimeter): 30.21 inches Hg (1023.0 mb)
Winds: from the NE (40 degrees) at 8 MPH (7 knots; 3.6 m/s)
Visibility: 3 miles ( 5 km)
Ceiling: at least 12,000 feet AGL
Clouds: few clouds at 900 feet AGL
scattered clouds at 10000 feet AGL
Weather: BR  (mist)

METAR text: LTFJ 212050Z 03006KT 6000 FEW010 SCT100 06/03 Q1023 NOSIG RMK RWY24 VRB02KT
Conditions at: LTFJ (SABIHA GOKCEN , TR) observed 2050 UTC 21 February 2019
Temperature: 6.0°C (43°F)
Dewpoint: 3.0°C (37°F) [RH = 81%]
Pressure (altimeter): 30.21 inches Hg (1023.0 mb)
Winds: from the NNE (30 degrees) at 7 MPH (6 knots; 3.1 m/s)
Visibility: 4 miles ( 6 km)
Ceiling: at least 12,000 feet AGL
Clouds: few clouds at 1000 feet AGL
scattered clouds at 10000 feet AGL
Weather: no significant weather observed at this time

METAR text: LTFJ 212020Z 02007KT 7000 FEW010 SCT100 06/04 Q1024 NOSIG RMK RWY24 36005KT
Conditions at: LTFJ (SABIHA GOKCEN , TR) observed 2020 UTC 21 February 2019
Temperature: 6.0°C (43°F)
Dewpoint: 4.0°C (39°F) [RH = 87%]
Pressure (altimeter): 30.24 inches Hg (1024.0 mb)
Winds: from the NNE (20 degrees) at 8 MPH (7 knots; 3.6 m/s)
Visibility: 4 miles ( 7 km)
Ceiling: at least 12,000 feet AGL
Clouds: few clouds at 1000 feet AGL
scattered clouds at 10000 feet AGL
Weather: no significant weather observed at this time

METAR text: LTFJ 211950Z 02007KT 7000 FEW009 SCT100 06/04 Q1024 NOSIG RMK RWY24 36005KT
Conditions at: LTFJ (SABIHA GOKCEN , TR) observed 1950 UTC 21 February 2019
Temperature: 6.0°C (43°F)
Dewpoint: 4.0°C (39°F) [RH = 87%]
Pressure (altimeter): 30.24 inches Hg (1024.0 mb)
Winds: from the NNE (20 degrees) at 8 MPH (7 knots; 3.6 m/s)
Visibility: 4 miles ( 7 km)
Ceiling: at least 12,000 feet AGL
Clouds: few clouds at 900 feet AGL
scattered clouds at 10000 feet AGL
Weather: no significant weather observed at this time

METAR text: LTFJ 211920Z 04006KT 6000 FEW013 SCT100 06/04 Q1024 NOSIG RMK RWY24 04003KT 010V080
Conditions at: LTFJ (SABIHA GOKCEN , TR) observed 1920 UTC 21 February 2019
Temperature: 6.0°C (43°F)
Dewpoint: 4.0°C (39°F) [RH = 87%]
Pressure (altimeter): 30.24 inches Hg (1024.0 mb)
Winds: from the NE (40 degrees) at 7 MPH (6 knots; 3.1 m/s)
Visibility: 4 miles ( 6 km)
Ceiling: at least 12,000 feet AGL
Clouds: few clouds at 1300 feet AGL
scattered clouds at 10000 feet AGL
Weather: no significant weather observed at this time

METAR text: LTFJ 211850Z 04008KT 7000 FEW015 SCT070 06/04 Q1024 NOSIG RMK RWY24 03004KT
Conditions at: LTFJ (SABIHA GOKCEN , TR) observed 1850 UTC 21 February 2019
Temperature: 6.0°C (43°F)
Dewpoint: 4.0°C (39°F) [RH = 87%]
Pressure (altimeter): 30.24 inches Hg (1024.0 mb)
Winds: from the NE (40 degrees) at 9 MPH (8 knots; 4.1 m/s)
Visibility: 4 miles ( 7 km)
Ceiling: at least 12,000 feet AGL
Clouds: few clouds at 1500 feet AGL
scattered clouds at 7000 feet AGL
Weather: no significant weather observed at this time

METAR text: LTFJ 211820Z 03008KT 7000 FEW013 BKN070 06/04 Q1024 NOSIG RMK RWY24 03003KT
Conditions at: LTFJ (SABIHA GOKCEN , TR) observed 1820 UTC 21 February 2019
Temperature: 6.0°C (43°F)
Dewpoint: 4.0°C (39°F) [RH = 87%]
Pressure (altimeter): 30.24 inches Hg (1024.0 mb)
Winds: from the NNE (30 degrees) at 9 MPH (8 knots; 4.1 m/s)
Visibility: 4 miles ( 7 km)
Ceiling: 7000 feet AGL
Clouds: few clouds at 1300 feet AGL
broken clouds at 7000 feet AGL
Weather: no significant weather observed at this time

METAR text: LTFJ 211750Z 04008KT 7000 FEW013 BKN060 06/04 Q1024 NOSIG RMK RWY24 02004KT
Conditions at: LTFJ (SABIHA GOKCEN , TR) observed 1750 UTC 21 February 2019
Temperature: 6.0°C (43°F)
Dewpoint: 4.0°C (39°F) [RH = 87%]
Pressure (altimeter): 30.24 inches Hg (1024.0 mb)
Winds: from the NE (40 degrees) at 9 MPH (8 knots; 4.1 m/s)
Visibility: 4 miles ( 7 km)
Ceiling: 6000 feet AGL
Clouds: few clouds at 1300 feet AGL
broken clouds at 6000 feet AGL
Weather: no significant weather observed at this time

METAR text: LTFJ 211720Z 03011KT 7000 FEW013 BKN060 07/04 Q1024 NOSIG RMK RWY24 01007KT
Conditions at: LTFJ (SABIHA GOKCEN , TR) observed 1720 UTC 21 February 2019
Temperature: 7.0°C (45°F)
Dewpoint: 4.0°C (39°F) [RH = 81%]
Pressure (altimeter): 30.24 inches Hg (1024.0 mb)
Winds: from the NNE (30 degrees) at 13 MPH (11 knots; 5.7 m/s)
Visibility: 4 miles ( 7 km)
Ceiling: 6000 feet AGL
Clouds: few clouds at 1300 feet AGL
broken clouds at 6000 feet AGL
Weather: no significant weather observed at this time

METAR text: LTFJ 211650Z 04012KT 6000 SCT013 BKN060 07/04 Q1024 NOSIG RMK RWY24 01006KT
Conditions at: LTFJ (SABIHA GOKCEN , TR) observed 1650 UTC 21 February 2019
Temperature: 7.0°C (45°F)
Dewpoint: 4.0°C (39°F) [RH = 81%]
Pressure (altimeter): 30.24 inches Hg (1024.0 mb)
Winds: from the NE (40 degrees) at 14 MPH (12 knots; 6.2 m/s)
Visibility: 4 miles ( 6 km)
Ceiling: 6000 feet AGL
Clouds: scattered clouds at 1300 feet AGL
broken clouds at 6000 feet AGL
Weather: no significant weather observed at this time

METAR text: LTFJ 211620Z 04014KT 6000 SCT015 BKN090 07/04 Q1024 NOSIG RMK RWY24 02009KT
Conditions at: LTFJ (SABIHA GOKCEN , TR) observed 1620 UTC 21 February 2019
Temperature: 7.0°C (45°F)
Dewpoint: 4.0°C (39°F) [RH = 81%]
Pressure (altimeter): 30.24 inches Hg (1024.0 mb)
Winds: from the NE (40 degrees) at 16 MPH (14 knots; 7.2 m/s)
Visibility: 4 miles ( 6 km)
Ceiling: 9000 feet AGL
Clouds: scattered clouds at 1500 feet AGL
broken clouds at 9000 feet AGL
Weather: no significant weather observed at this time

METAR text: LTFJ 211550Z 03014KT 6000 SCT011 BKN100 07/04 Q1023 NOSIG RMK RWY24 02010KT
Conditions at: LTFJ (SABIHA GOKCEN , TR) observed 1550 UTC 21 February 2019
Temperature: 7.0°C (45°F)
Dewpoint: 4.0°C (39°F) [RH = 81%]
Pressure (altimeter): 30.21 inches Hg (1023.0 mb)
Winds: from the NNE (30 degrees) at 16 MPH (14 knots; 7.2 m/s)
Visibility: 4 miles ( 6 km)
Ceiling: 10000 feet AGL
Clouds: scattered clouds at 1100 feet AGL
broken clouds at 10000 feet AGL
Weather: no significant weather observed at this time

METAR text: LTFJ 211520Z 03013KT 7000 SCT011 BKN100 08/05 Q1023 NOSIG RMK RWY24 03010KT
Conditions at: LTFJ (SABIHA GOKCEN , TR) observed 1520 UTC 21 February 2019
Temperature: 8.0°C (46°F)
Dewpoint: 5.0°C (41°F) [RH = 81%]
Pressure (altimeter): 30.21 inches Hg (1023.0 mb)
Winds: from the NNE (30 degrees) at 15 MPH (13 knots; 6.7 m/s)
Visibility: 4 miles ( 7 km)
Ceiling: 10000 feet AGL
Clouds: scattered clouds at 1100 feet AGL
broken clouds at 10000 feet AGL
Weather: no significant weather observed at this time

METAR text: LTFJ 211450Z 02016KT 7000 SCT011 BKN100 08/05 Q1023 NOSIG RMK RWY24 02010KT
Conditions at: LTFJ (SABIHA GOKCEN , TR) observed 1450 UTC 21 February 2019
Temperature: 8.0°C (46°F)
Dewpoint: 5.0°C (41°F) [RH = 81%]
Pressure (altimeter): 30.21 inches Hg (1023.0 mb)
Winds: from the NNE (20 degrees) at 18 MPH (16 knots; 8.2 m/s)
Visibility: 4 miles ( 7 km)
Ceiling: 10000 feet AGL
Clouds: scattered clouds at 1100 feet AGL
broken clouds at 10000 feet AGL
Weather: no significant weather observed at this time

METAR text: LTFJ 211420Z 02014KT 6000 SCT011 BKN090 09/05 Q1023 NOSIG RMK RWY24 01011KT
Conditions at: LTFJ (SABIHA GOKCEN , TR) observed 1420 UTC 21 February 2019
Temperature: 9.0°C (48°F)
Dewpoint: 5.0°C (41°F) [RH = 76%]
Pressure (altimeter): 30.21 inches Hg (1023.0 mb)
Winds: from the NNE (20 degrees) at 16 MPH (14 knots; 7.2 m/s)
Visibility: 4 miles ( 6 km)
Ceiling: 9000 feet AGL
Clouds: scattered clouds at 1100 feet AGL
broken clouds at 9000 feet AGL
Weather: no significant weather observed at this time

METAR text: LTFJ 211350Z 03013KT 7000 SCT011 BKN100 09/05 Q1023 NOSIG RMK RWY24 01013KT
Conditions at: LTFJ (SABIHA GOKCEN , TR) observed 1350 UTC 21 February 2019
Temperature: 9.0°C (48°F)
Dewpoint: 5.0°C (41°F) [RH = 76%]
Pressure (altimeter): 30.21 inches Hg (1023.0 mb)
Winds: from the NNE (30 degrees) at 15 MPH (13 knots; 6.7 m/s)
Visibility: 4 miles ( 7 km)
Ceiling: 10000 feet AGL
Clouds: scattered clouds at 1100 feet AGL
broken clouds at 10000 feet AGL
Weather: no significant weather observed at this time

METAR text: LTFJ 211320Z 01014KT 7000 SCT011 BKN100 09/05 Q1023 NOSIG RMK RWY24 36011KT
Conditions at: LTFJ (SABIHA GOKCEN , TR) observed 1320 UTC 21 February 2019
Temperature: 9.0°C (48°F)
Dewpoint: 5.0°C (41°F) [RH = 76%]
Pressure (altimeter): 30.21 inches Hg (1023.0 mb)
Winds: from the N (10 degrees) at 16 MPH (14 knots; 7.2 m/s)
Visibility: 4 miles ( 7 km)
Ceiling: 10000 feet AGL
Clouds: scattered clouds at 1100 feet AGL
broken clouds at 10000 feet AGL
Weather: no significant weather observed at this time

METAR text: LTFJ 211250Z 03012KT 7000 SCT011 BKN100 10/06 Q1023 NOSIG RMK RWY24 36009KT 350V090
Conditions at: LTFJ (SABIHA GOKCEN , TR) observed 1250 UTC 21 February 2019
Temperature: 10.0°C (50°F)
Dewpoint: 6.0°C (43°F) [RH = 76%]
Pressure (altimeter): 30.21 inches Hg (1023.0 mb)
Winds: from the NNE (30 degrees) at 14 MPH (12 knots; 6.2 m/s)
Visibility: 4 miles ( 7 km)
Ceiling: 10000 feet AGL
Clouds: scattered clouds at 1100 feet AGL
broken clouds at 10000 feet AGL
Weather: no significant weather observed at this time

METAR text: LTFJ 211220Z 03011KT 7000 SCT013 BKN100 11/06 Q1023 NOSIG RMK RWY24 02011KT 350V050
Conditions at: LTFJ (SABIHA GOKCEN , TR) observed 1220 UTC 21 February 2019
Temperature: 11.0°C (52°F)
Dewpoint: 6.0°C (43°F) [RH = 71%]
Pressure (altimeter): 30.21 inches Hg (1023.0 mb)
Winds: from the NNE (30 degrees) at 13 MPH (11 knots; 5.7 m/s)
Visibility: 4 miles ( 7 km)
Ceiling: 10000 feet AGL
Clouds: scattered clouds at 1300 feet AGL
broken clouds at 10000 feet AGL
Weather: no significant weather observed at this time

METAR text: LTFJ 211150Z 04010KT 6000 SCT018 BKN100 12/07 Q1023 NOSIG RMK RWY24 01010KT
Conditions at: LTFJ (SABIHA GOKCEN , TR) observed 1150 UTC 21 February 2019
Temperature: 12.0°C (54°F)
Dewpoint: 7.0°C (45°F) [RH = 71%]
Pressure (altimeter): 30.21 inches Hg (1023.0 mb)
Winds: from the NE (40 degrees) at 12 MPH (10 knots; 5.1 m/s)
Visibility: 4 miles ( 6 km)
Ceiling: 10000 feet AGL
Clouds: scattered clouds at 1800 feet AGL
broken clouds at 10000 feet AGL
Weather: no significant weather observed at this time

METAR text: LTFJ 211120Z 05009KT 7000 SCT018 BKN100 11/07 Q1023 NOSIG RMK RWY24 03009KT
Conditions at: LTFJ (SABIHA GOKCEN , TR) observed 1120 UTC 21 February 2019
Temperature: 11.0°C (52°F)
Dewpoint: 7.0°C (45°F) [RH = 76%]
Pressure (altimeter): 30.21 inches Hg (1023.0 mb)
Winds: from the NE (50 degrees) at 10 MPH (9 knots; 4.6 m/s)
Visibility: 4 miles ( 7 km)
Ceiling: 10000 feet AGL
Clouds: scattered clouds at 1800 feet AGL
broken clouds at 10000 feet AGL
Weather: no significant weather observed at this time

METAR text: LTFJ 211050Z 18004KT 140V210 6000 SCT017 BKN100 11/06 Q1023 NOSIG RMK RWY24 04008KT
Conditions at: LTFJ (SABIHA GOKCEN , TR) observed 1050 UTC 21 February 2019
Temperature: 11.0°C (52°F)
Dewpoint: 6.0°C (43°F) [RH = 71%]
Pressure (altimeter): 30.21 inches Hg (1023.0 mb)
Winds: from the S (180 degrees) at 5 MPH (4 knots; 2.1 m/s)
Visibility: 4 miles ( 6 km)
Ceiling: 10000 feet AGL
Clouds: scattered clouds at 1700 feet AGL
broken clouds at 10000 feet AGL
Weather: no significant weather observed at this time

METAR text: LTFJ 211020Z 18005KT 150V220 6000 FEW017 BKN100 11/07 Q1023 NOSIG RMK RWY24 17003KT
Conditions at: LTFJ (SABIHA GOKCEN , TR) observed 1020 UTC 21 February 2019
Temperature: 11.0°C (52°F)
Dewpoint: 7.0°C (45°F) [RH = 76%]
Pressure (altimeter): 30.21 inches Hg (1023.0 mb)
Winds: from the S (180 degrees) at 6 MPH (5 knots; 2.6 m/s)
Visibility: 4 miles ( 6 km)
Ceiling: 10000 feet AGL
Clouds: few clouds at 1700 feet AGL
broken clouds at 10000 feet AGL
Weather: no significant weather observed at this time

METAR text: LTFJ 210950Z 17004KT 120V210 6000 FEW017 BKN100 10/06 Q1023 NOSIG RMK RWY24 20004KT 160V240
Conditions at: LTFJ (SABIHA GOKCEN , TR) observed 0950 UTC 21 February 2019
Temperature: 10.0°C (50°F)
Dewpoint: 6.0°C (43°F) [RH = 76%]
Pressure (altimeter): 30.21 inches Hg (1023.0 mb)
Winds: from the S (170 degrees) at 5 MPH (4 knots; 2.1 m/s)
Visibility: 4 miles ( 6 km)
Ceiling: 10000 feet AGL
Clouds: few clouds at 1700 feet AGL
broken clouds at 10000 feet AGL
Weather: no significant weather observed at this time

METAR text: LTFJ 210920Z 18004KT 140V220 4200 BR FEW009 BKN100 09/06 Q1023 NOSIG RMK RWY24 21005KT
Conditions at: LTFJ (SABIHA GOKCEN , TR) observed 0920 UTC 21 February 2019
Temperature: 9.0°C (48°F)
Dewpoint: 6.0°C (43°F) [RH = 81%]
Pressure (altimeter): 30.21 inches Hg (1023.0 mb)
Winds: from the S (180 degrees) at 5 MPH (4 knots; 2.1 m/s)
Visibility: 2.61 miles (4.20 km)
Ceiling: 10000 feet AGL
Clouds: few clouds at 900 feet AGL
broken clouds at 10000 feet AGL
Weather: BR  (mist)

METAR text: LTFJ 210850Z 17005KT 150V210 3500 BR SCT007 BKN100 08/07 Q1023 NOSIG RMK RWY24 20005KT 170V230
Conditions at: LTFJ (SABIHA GOKCEN , TR) observed 0850 UTC 21 February 2019
Temperature: 8.0°C (46°F)
Dewpoint: 7.0°C (45°F) [RH = 93%]
Pressure (altimeter): 30.21 inches Hg (1023.0 mb)
Winds: from the S (170 degrees) at 6 MPH (5 knots; 2.6 m/s)
Visibility: 2.17 miles (3.49 km)
Ceiling: 10000 feet AGL
Clouds: scattered clouds at 700 feet AGL
broken clouds at 10000 feet AGL
Weather: BR  (mist)

METAR text: LTFJ 210820Z 18006KT 3400 BR SCT007 BKN100 08/07 Q1023 NOSIG RMK RWY24 19005KT
Conditions at: LTFJ (SABIHA GOKCEN , TR) observed 0820 UTC 21 February 2019
Temperature: 8.0°C (46°F)
Dewpoint: 7.0°C (45°F) [RH = 93%]
Pressure (altimeter): 30.21 inches Hg (1023.0 mb)
Winds: from the S (180 degrees) at 7 MPH (6 knots; 3.1 m/s)
Visibility: 2.11 miles (3.40 km)
Ceiling: 10000 feet AGL
Clouds: scattered clouds at 700 feet AGL
broken clouds at 10000 feet AGL
Weather: BR  (mist)

METAR text: LTFJ 210750Z 21004KT 170V240 3100 1200SE R06/P1500U R24/P1500N BR BKN002 07/07 Q1023 NOSIG
Conditions at: LTFJ (SABIHA GOKCEN , TR) observed 0750 UTC 21 February 2019
Temperature: 7.0°C (45°F)
Dewpoint: 7.0°C (45°F) [RH = 100%]
Pressure (altimeter): 30.21 inches Hg (1023.0 mb)
Winds: from the SSW (210 degrees) at 5 MPH (4 knots; 2.1 m/s)
Visibility: 1.93 miles (3.11 km)
Ceiling: 200 feet AGL
Clouds: broken clouds at 200 feet AGL
Weather: BR  (mist)

METAR text: LTFJ 210720Z 20004KT 160V220 1400 R06/1300N R24/0325U BCFG BKN001 06/06 Q1022 BECMG TL0750 3200 BR
Conditions at: LTFJ (SABIHA GOKCEN , TR) observed 0720 UTC 21 February 2019
Temperature: 6.0°C (43°F)
Dewpoint: 6.0°C (43°F) [RH = 100%]
Pressure (altimeter): 30.18 inches Hg (1022.0 mb)
Winds: from the SSW (200 degrees) at 5 MPH (4 knots; 2.1 m/s)
Visibility: 0.87 miles (1.40 km)
Ceiling: 100 feet AGL
Clouds: broken clouds at 100 feet AGL
Weather: BCFG  (patches of fog)

METAR text: LTFJ 210650Z 22006KT 0300 R06/0375D R24/0175U FG VV001 05/05 Q1022 BECMG TL0730 1200 BCFG
Conditions at: LTFJ (SABIHA GOKCEN , TR) observed 0650 UTC 21 February 2019
Temperature: 5.0°C (41°F)
Dewpoint: 5.0°C (41°F) [RH = 100%]
Pressure (altimeter): 30.18 inches Hg (1022.0 mb)
Winds: from the SW (220 degrees) at 7 MPH (6 knots; 3.1 m/s)
Visibility: 0.19 miles (0.31 km)
Ceiling: indefinite ceiling with vertical visibility of 100 feet AGL
Clouds: obscured sky
Weather: FG  (fog)

METAR text: LTFJ 210620Z 20006KT 170V230 0100 R06/0200U R24/0150U FG VV001 06/05 Q1022 BECMG TL0720 0900
Conditions at: LTFJ (SABIHA GOKCEN , TR) observed 0620 UTC 21 February 2019
Temperature: 6.0°C (43°F)
Dewpoint: 5.0°C (41°F) [RH = 93%]
Pressure (altimeter): 30.18 inches Hg (1022.0 mb)
Winds: from the SSW (200 degrees) at 7 MPH (6 knots; 3.1 m/s)
Visibility: 0.06 miles (0.10 km)
Ceiling: indefinite ceiling with vertical visibility of 100 feet AGL
Clouds: obscured sky
Weather: FG  (fog)

METAR text: LTFJ 210550Z 19004KT 160V220 0200 R06/0150U R24/0200U FG NSC 04/04 Q1022 NOSIG
Conditions at: LTFJ (SABIHA GOKCEN , TR) observed 0550 UTC 21 February 2019
Temperature: 4.0°C (39°F)
Dewpoint: 4.0°C (39°F) [RH = 100%]
Pressure (altimeter): 30.18 inches Hg (1022.0 mb)
Winds: from the S (190 degrees) at 5 MPH (4 knots; 2.1 m/s)
Visibility: 0.12 miles (0.19 km)
Ceiling: at least 12,000 feet AGL
Clouds: sky clear below 12,000 feet AGL
Weather: FG  (fog)

METAR text: LTFJ 210520Z 18005KT 3100 1100NE R06/1100U R24/P1500D BR NSC 04/03 Q1021 NOSIG
Conditions at: LTFJ (SABIHA GOKCEN , TR) observed 0520 UTC 21 February 2019
Temperature: 4.0°C (39°F)
Dewpoint: 3.0°C (37°F) [RH = 93%]
Pressure (altimeter): 30.15 inches Hg (1021.0 mb)
Winds: from the S (180 degrees) at 6 MPH (5 knots; 2.6 m/s)
Visibility: 1.93 miles (3.11 km)
Ceiling: at least 12,000 feet AGL
Clouds: sky clear below 12,000 feet AGL
Weather: BR  (mist)

METAR text: LTFJ 210450Z 24004KT 3600 BR NSC 04/03 Q1021 NOSIG RMK RWY24 24005KT
Conditions at: LTFJ (SABIHA GOKCEN , TR) observed 0450 UTC 21 February 2019
Temperature: 4.0°C (39°F)
Dewpoint: 3.0°C (37°F) [RH = 93%]
Pressure (altimeter): 30.15 inches Hg (1021.0 mb)
Winds: from the WSW (240 degrees) at 5 MPH (4 knots; 2.1 m/s)
Visibility: 2.24 miles (3.60 km)
Ceiling: at least 12,000 feet AGL
Clouds: sky clear below 12,000 feet AGL
Weather: BR  (mist)

METAR text: LTFJ 210420Z 19003KT 150V220 4300 BR NSC 04/04 Q1021 NOSIG RMK RWY24 20004KT
Conditions at: LTFJ (SABIHA GOKCEN , TR) observed 0420 UTC 21 February 2019
Temperature: 4.0°C (39°F)
Dewpoint: 4.0°C (39°F) [RH = 100%]
Pressure (altimeter): 30.15 inches Hg (1021.0 mb)
Winds: from the S (190 degrees) at 3 MPH (3 knots; 1.5 m/s)
Visibility: 2.67 miles (4.30 km)
Ceiling: at least 12,000 feet AGL
Clouds: sky clear below 12,000 feet AGL
Weather: BR  (mist)

METAR text: LTFJ 210350Z 19003KT 140V240 4900 BR NSC 05/04 Q1021 NOSIG RMK RWY24 16003KT
Conditions at: LTFJ (SABIHA GOKCEN , TR) observed 0350 UTC 21 February 2019
Temperature: 5.0°C (41°F)
Dewpoint: 4.0°C (39°F) [RH = 93%]
Pressure (altimeter): 30.15 inches Hg (1021.0 mb)
Winds: from the S (190 degrees) at 3 MPH (3 knots; 1.5 m/s)
Visibility: 3 miles ( 5 km)
Ceiling: at least 12,000 feet AGL
Clouds: sky clear below 12,000 feet AGL
Weather: BR  (mist)

METAR text: LTFJ 210320Z 24003KT 210V270 4400 BR NSC 05/03 Q1021 NOSIG RMK RWY24 VRB01KT
Conditions at: LTFJ (SABIHA GOKCEN , TR) observed 0320 UTC 21 February 2019
Temperature: 5.0°C (41°F)
Dewpoint: 3.0°C (37°F) [RH = 87%]
Pressure (altimeter): 30.15 inches Hg (1021.0 mb)
Winds: from the WSW (240 degrees) at 3 MPH (3 knots; 1.5 m/s)
Visibility: 2.73 miles (4.39 km)
Ceiling: at least 12,000 feet AGL
Clouds: sky clear below 12,000 feet AGL
Weather: BR  (mist)

METAR text: LTFJ 210250Z 23003KT 200V260 4000 BR NSC 05/04 Q1020 NOSIG RMK RWY24 17003KT
Conditions at: LTFJ (SABIHA GOKCEN , TR) observed 0250 UTC 21 February 2019
Temperature: 5.0°C (41°F)
Dewpoint: 4.0°C (39°F) [RH = 93%]
Pressure (altimeter): 30.12 inches Hg (1020.0 mb)
Winds: from the SW (230 degrees) at 3 MPH (3 knots; 1.5 m/s)
Visibility: 2.49 miles (4.01 km)
Ceiling: at least 12,000 feet AGL
Clouds: sky clear below 12,000 feet AGL
Weather: BR  (mist)

METAR text: LTFJ 210220Z VRB02KT 2500 BR NSC 05/04 Q1020 BECMG 1200 BCFG
Conditions at: LTFJ (SABIHA GOKCEN , TR) observed 0220 UTC 21 February 2019
Temperature: 5.0°C (41°F)
Dewpoint: 4.0°C (39°F) [RH = 93%]
Pressure (altimeter): 30.12 inches Hg (1020.0 mb)
Winds: variable direction winds at 2 MPH (2 knots; 1.0 m/s)
Visibility: 1.55 miles (2.49 km)
Ceiling: at least 12,000 feet AGL
Clouds: sky clear below 12,000 feet AGL
Weather: BR  (mist)

METAR text: LTFJ 210150Z VRB02KT 2800 BR NSC 04/04 Q1020 BECMG 1200 BCFG
Conditions at: LTFJ (SABIHA GOKCEN , TR) observed 0150 UTC 21 February 2019
Temperature: 4.0°C (39°F)
Dewpoint: 4.0°C (39°F) [RH = 100%]
Pressure (altimeter): 30.12 inches Hg (1020.0 mb)
Winds: variable direction winds at 2 MPH (2 knots; 1.0 m/s)
Visibility: 1.74 miles (2.80 km)
Ceiling: at least 12,000 feet AGL
Clouds: sky clear below 12,000 feet AGL
Weather: BR  (mist)

METAR text: LTFJ 210120Z VRB02KT 2900 BR NSC 04/03 Q1020 BECMG 1200 BCFG
Conditions at: LTFJ (SABIHA GOKCEN , TR) observed 0120 UTC 21 February 2019
Temperature: 4.0°C (39°F)
Dewpoint: 3.0°C (37°F) [RH = 93%]
Pressure (altimeter): 30.12 inches Hg (1020.0 mb)
Winds: variable direction winds at 2 MPH (2 knots; 1.0 m/s)
Visibility: 1.80 miles (2.90 km)
Ceiling: at least 12,000 feet AGL
Clouds: sky clear below 12,000 feet AGL
Weather: BR  (mist)

METAR text: LTFJ 210050Z 19004KT 130V250 5000 BR NSC 05/04 Q1020 NOSIG RMK RWY24 18005KT
Conditions at: LTFJ (SABIHA GOKCEN , TR) observed 0050 UTC 21 February 2019
Temperature: 5.0°C (41°F)
Dewpoint: 4.0°C (39°F) [RH = 93%]
Pressure (altimeter): 30.12 inches Hg (1020.0 mb)
Winds: from the S (190 degrees) at 5 MPH (4 knots; 2.1 m/s)
Visibility: 3 miles ( 5 km)
Ceiling: at least 12,000 feet AGL
Clouds: sky clear below 12,000 feet AGL
Weather: BR  (mist)

METAR text: LTFJ 210020Z 18003KT 2700 BR NSC 05/04 Q1020 BECMG TL0200 1200 BCFG
Conditions at: LTFJ (SABIHA GOKCEN , TR) observed 0020 UTC 21 February 2019
Temperature: 5.0°C (41°F)
Dewpoint: 4.0°C (39°F) [RH = 93%]
Pressure (altimeter): 30.12 inches Hg (1020.0 mb)
Winds: from the S (180 degrees) at 3 MPH (3 knots; 1.5 m/s)
Visibility: 1.68 miles (2.70 km)
Ceiling: at least 12,000 feet AGL
Clouds: sky clear below 12,000 feet AGL
Weather: BR  (mist)

METAR text: LTFJ 202350Z 19001KT 2000 BR NSC 03/03 Q1020 BECMG 1200 BCFG
Conditions at: LTFJ (SABIHA GOKCEN , TR) observed 2350 UTC 20 February 2019
Temperature: 3.0°C (37°F)
Dewpoint: 3.0°C (37°F) [RH = 100%]
Pressure (altimeter): 30.12 inches Hg (1020.0 mb)
Winds: from the S (190 degrees) at 1 MPH (1 knots; 0.5 m/s)
Visibility: 1.24 miles (2.00 km)
Ceiling: at least 12,000 feet AGL
Clouds: sky clear below 12,000 feet AGL
Weather: BR  (mist)

METAR text: LTFJ 202320Z 14004KT 2300 BR NSC 03/03 Q1020 NOSIG RMK RWY24 16003KT 120V210
Conditions at: LTFJ (SABIHA GOKCEN , TR) observed 2320 UTC 20 February 2019
Temperature: 3.0°C (37°F)
Dewpoint: 3.0°C (37°F) [RH = 100%]
Pressure (altimeter): 30.12 inches Hg (1020.0 mb)
Winds: from the SE (140 degrees) at 5 MPH (4 knots; 2.1 m/s)
Visibility: 1.43 miles (2.30 km)
Ceiling: at least 12,000 feet AGL
Clouds: sky clear below 12,000 feet AGL
Weather: BR  (mist)

METAR text: LTFJ 202250Z 00000KT 2700 BR NSC 05/04 Q1020 NOSIG RMK RWY24 06003KT 010V130
Conditions at: LTFJ (SABIHA GOKCEN , TR) observed 2250 UTC 20 February 2019
Temperature: 5.0°C (41°F)
Dewpoint: 4.0°C (39°F) [RH = 93%]
Pressure (altimeter): 30.12 inches Hg (1020.0 mb)
Winds: calm
Visibility: 1.68 miles (2.70 km)
Ceiling: at least 12,000 feet AGL
Clouds: sky clear below 12,000 feet AGL
Weather: BR  (mist)

METAR text: LTFJ 202220Z 00000KT 2900 BR NSC 05/04 Q1020 BECMG TL2300 1200 BCFG
Conditions at: LTFJ (SABIHA GOKCEN , TR) observed 2220 UTC 20 February 2019
Temperature: 5.0°C (41°F)
Dewpoint: 4.0°C (39°F) [RH = 93%]
Pressure (altimeter): 30.12 inches Hg (1020.0 mb)
Winds: calm
Visibility: 1.80 miles (2.90 km)
Ceiling: at least 12,000 feet AGL
Clouds: sky clear below 12,000 feet AGL
Weather: BR  (mist)

METAR text: LTFJ 202150Z 17002KT 2900 BR NSC 05/04 Q1020 BECMG TL2300 1200 BCFG
Conditions at: LTFJ (SABIHA GOKCEN , TR) observed 2150 UTC 20 February 2019
Temperature: 5.0°C (41°F)
Dewpoint: 4.0°C (39°F) [RH = 93%]
Pressure (altimeter): 30.12 inches Hg (1020.0 mb)
Winds: from the S (170 degrees) at 2 MPH (2 knots; 1.0 m/s)
Visibility: 1.80 miles (2.90 km)
Ceiling: at least 12,000 feet AGL
Clouds: sky clear below 12,000 feet AGL
Weather: BR  (mist)

METAR text: LTFJ 202120Z 15004KT 2000 BR NSC 05/04 Q1019 BECMG TL2300 1200 BCFG
Conditions at: LTFJ (SABIHA GOKCEN , TR) observed 2120 UTC 20 February 2019
Temperature: 5.0°C (41°F)
Dewpoint: 4.0°C (39°F) [RH = 93%]
Pressure (altimeter): 30.09 inches Hg (1019.0 mb)
Winds: from the SSE (150 degrees) at 5 MPH (4 knots; 2.1 m/s)
Visibility: 1.24 miles (2.00 km)
Ceiling: at least 12,000 feet AGL
Clouds: sky clear below 12,000 feet AGL
Weather: BR  (mist)

METAR text: LTFJ 202050Z 16003KT 2100 BR NSC 06/05 Q1020 BECMG 1200 BCFG
Conditions at: LTFJ (SABIHA GOKCEN , TR) observed 2050 UTC 20 February 2019
Temperature: 6.0°C (43°F)
Dewpoint: 5.0°C (41°F) [RH = 93%]
Pressure (altimeter): 30.12 inches Hg (1020.0 mb)
Winds: from the SSE (160 degrees) at 3 MPH (3 knots; 1.5 m/s)
Visibility: 1.30 miles (2.09 km)
Ceiling: at least 12,000 feet AGL
Clouds: sky clear below 12,000 feet AGL
Weather: BR  (mist)

METAR text: LTFJ 202020Z VRB02KT 1900 BR NSC 06/04 Q1019 NOSIG RMK RWY24 16002KT
Conditions at: LTFJ (SABIHA GOKCEN , TR) observed 2020 UTC 20 February 2019
Temperature: 6.0°C (43°F)
Dewpoint: 4.0°C (39°F) [RH = 87%]
Pressure (altimeter): 30.09 inches Hg (1019.0 mb)
Winds: variable direction winds at 2 MPH (2 knots; 1.0 m/s)
Visibility: 1.18 miles (1.90 km)
Ceiling: at least 12,000 feet AGL
Clouds: sky clear below 12,000 feet AGL
Weather: BR  (mist)

METAR text: LTFJ 201950Z VRB02KT 3500 BR NSC 06/05 Q1020 BECMG 1600
Conditions at: LTFJ (SABIHA GOKCEN , TR) observed 1950 UTC 20 February 2019
Temperature: 6.0°C (43°F)
Dewpoint: 5.0°C (41°F) [RH = 93%]
Pressure (altimeter): 30.12 inches Hg (1020.0 mb)
Winds: variable direction winds at 2 MPH (2 knots; 1.0 m/s)
Visibility: 2.17 miles (3.49 km)
Ceiling: at least 12,000 feet AGL
Clouds: sky clear below 12,000 feet AGL
Weather: BR  (mist)

METAR text: LTFJ 201920Z 25003KT 2800 BR NSC 06/04 Q1019 NOSIG RMK RWY24 VRB02KT
Conditions at: LTFJ (SABIHA GOKCEN , TR) observed 1920 UTC 20 February 2019
Temperature: 6.0°C (43°F)
Dewpoint: 4.0°C (39°F) [RH = 87%]
Pressure (altimeter): 30.09 inches Hg (1019.0 mb)
Winds: from the WSW (250 degrees) at 3 MPH (3 knots; 1.5 m/s)
Visibility: 1.74 miles (2.80 km)
Ceiling: at least 12,000 feet AGL
Clouds: sky clear below 12,000 feet AGL
Weather: BR  (mist)

METAR text: LTFJ 201850Z 29003KT 2800 BR NSC 06/05 Q1019 NOSIG RMK RWY24 VRB01KT
Conditions at: LTFJ (SABIHA GOKCEN , TR) observed 1850 UTC 20 February 2019
Temperature: 6.0°C (43°F)
Dewpoint: 5.0°C (41°F) [RH = 93%]
Pressure (altimeter): 30.09 inches Hg (1019.0 mb)
Winds: from the WNW (290 degrees) at 3 MPH (3 knots; 1.5 m/s)
Visibility: 1.74 miles (2.80 km)
Ceiling: at least 12,000 feet AGL
Clouds: sky clear below 12,000 feet AGL
Weather: BR  (mist)

METAR text: LTFJ 201820Z 00000KT 2100 BR NSC 06/05 Q1019 NOSIG RMK RWY24 21002KT
Conditions at: LTFJ (SABIHA GOKCEN , TR) observed 1820 UTC 20 February 2019
Temperature: 6.0°C (43°F)
Dewpoint: 5.0°C (41°F) [RH = 93%]
Pressure (altimeter): 30.09 inches Hg (1019.0 mb)
Winds: calm
Visibility: 1.30 miles (2.09 km)
Ceiling: at least 12,000 feet AGL
Clouds: sky clear below 12,000 feet AGL
Weather: BR  (mist)

METAR text: LTFJ 201750Z 00000KT 2500 BR NSC 05/05 Q1019 NOSIG RMK RWY24 20003KT
Conditions at: LTFJ (SABIHA GOKCEN , TR) observed 1750 UTC 20 February 2019
Temperature: 5.0°C (41°F)
Dewpoint: 5.0°C (41°F) [RH = 100%]
Pressure (altimeter): 30.09 inches Hg (1019.0 mb)
Winds: calm
Visibility: 1.55 miles (2.49 km)
Ceiling: at least 12,000 feet AGL
Clouds: sky clear below 12,000 feet AGL
Weather: BR  (mist)

METAR text: LTFJ 201720Z 00000KT 2200 BR NSC 05/05 Q1019 NOSIG RMK RWY24 18002KT
Conditions at: LTFJ (SABIHA GOKCEN , TR) observed 1720 UTC 20 February 2019
Temperature: 5.0°C (41°F)
Dewpoint: 5.0°C (41°F) [RH = 100%]
Pressure (altimeter): 30.09 inches Hg (1019.0 mb)
Winds: calm
Visibility: 1.37 miles (2.20 km)
Ceiling: at least 12,000 feet AGL
Clouds: sky clear below 12,000 feet AGL
Weather: BR  (mist)

METAR text: LTFJ 201650Z 00000KT 2200 BR NSC 06/05 Q1019 NOSIG RMK RWY24 VRB01KT
Conditions at: LTFJ (SABIHA GOKCEN , TR) observed 1650 UTC 20 February 2019
Temperature: 6.0°C (43°F)
Dewpoint: 5.0°C (41°F) [RH = 93%]
Pressure (altimeter): 30.09 inches Hg (1019.0 mb)
Winds: calm
Visibility: 1.37 miles (2.20 km)
Ceiling: at least 12,000 feet AGL
Clouds: sky clear below 12,000 feet AGL
Weather: BR  (mist)

METAR text: LTFJ 201620Z VRB01KT 2400 BR NSC 06/05 Q1018 BECMG 1200 BCFG
Conditions at: LTFJ (SABIHA GOKCEN , TR) observed 1620 UTC 20 February 2019
Temperature: 6.0°C (43°F)
Dewpoint: 5.0°C (41°F) [RH = 93%]
Pressure (altimeter): 30.06 inches Hg (1018.0 mb)
Winds: variable direction winds at 1 MPH (1 knots; 0.5 m/s)
Visibility: 1.49 miles (2.40 km)
Ceiling: at least 12,000 feet AGL
Clouds: sky clear below 12,000 feet AGL
Weather: BR  (mist)

METAR text: LTFJ 201550Z 24003KT 2500 BR NSC 06/05 Q1018 BECMG 1200 BCFG
Conditions at: LTFJ (SABIHA GOKCEN , TR) observed 1550 UTC 20 February 2019
Temperature: 6.0°C (43°F)
Dewpoint: 5.0°C (41°F) [RH = 93%]
Pressure (altimeter): 30.06 inches Hg (1018.0 mb)
Winds: from the WSW (240 degrees) at 3 MPH (3 knots; 1.5 m/s)
Visibility: 1.55 miles (2.49 km)
Ceiling: at least 12,000 feet AGL
Clouds: sky clear below 12,000 feet AGL
Weather: BR  (mist)

METAR text: LTFJ 201520Z 21005KT 6000 NSC 07/05 Q1018 NOSIG RMK RWY24 19005KT
Conditions at: LTFJ (SABIHA GOKCEN , TR) observed 1520 UTC 20 February 2019
Temperature: 7.0°C (45°F)
Dewpoint: 5.0°C (41°F) [RH = 87%]
Pressure (altimeter): 30.06 inches Hg (1018.0 mb)
Winds: from the SSW (210 degrees) at 6 MPH (5 knots; 2.6 m/s)
Visibility: 4 miles ( 6 km)
Ceiling: at least 12,000 feet AGL
Clouds: sky clear below 12,000 feet AGL
Weather: no significant weather observed at this time

METAR text: LTFJ 201450Z 18005KT 6000 NSC 08/06 Q1018 NOSIG RMK RWY24 20006KT
Conditions at: LTFJ (SABIHA GOKCEN , TR) observed 1450 UTC 20 February 2019
Temperature: 8.0°C (46°F)
Dewpoint: 6.0°C (43°F) [RH = 87%]
Pressure (altimeter): 30.06 inches Hg (1018.0 mb)
Winds: from the S (180 degrees) at 6 MPH (5 knots; 2.6 m/s)
Visibility: 4 miles ( 6 km)
Ceiling: at least 12,000 feet AGL
Clouds: sky clear below 12,000 feet AGL
Weather: no significant weather observed at this time

METAR text: LTFJ 201420Z 19005KT 160V230 6000 NSC 09/06 Q1018 NOSIG RMK RWY24 21006KT
Conditions at: LTFJ (SABIHA GOKCEN , TR) observed 1420 UTC 20 February 2019
Temperature: 9.0°C (48°F)
Dewpoint: 6.0°C (43°F) [RH = 81%]
Pressure (altimeter): 30.06 inches Hg (1018.0 mb)
Winds: from the S (190 degrees) at 6 MPH (5 knots; 2.6 m/s)
Visibility: 4 miles ( 6 km)
Ceiling: at least 12,000 feet AGL
Clouds: sky clear below 12,000 feet AGL
Weather: no significant weather observed at this time

METAR text: LTFJ 201350Z 20005KT 150V220 7000 NSC 10/06 Q1018 NOSIG RMK RWY24 21006KT
Conditions at: LTFJ (SABIHA GOKCEN , TR) observed 1350 UTC 20 February 2019
Temperature: 10.0°C (50°F)
Dewpoint: 6.0°C (43°F) [RH = 76%]
Pressure (altimeter): 30.06 inches Hg (1018.0 mb)
Winds: from the SSW (200 degrees) at 6 MPH (5 knots; 2.6 m/s)
Visibility: 4 miles ( 7 km)
Ceiling: at least 12,000 feet AGL
Clouds: sky clear below 12,000 feet AGL
Weather: no significant weather observed at this time

Forecast for: AMD
Text: TAF AMD LTFJ 220030Z 2200/2224 VRB02KT 1200 BCFG SCT008
Forecast period: 0000 to 0400 UTC 22 February 2019
Forecast type: FROM: standard forecast or significant change
Winds: variable direction winds at 2 MPH (2 knots; 1.0 m/s)
Visibility: 0.75 miles (1.21 km)
Ceiling: at least 12,000 feet AGL
Clouds: scattered clouds at 800 feet AGL
Weather: BCFG  (patches of fog)
Text: TEMPO 2201/2204 0500 FG VV003
Forecast period: 0100 to 0400 UTC 22 February 2019
Forecast type: TEMPORARY: The following changes expected for less than half the time period
Visibility: 0.31 miles (0.50 km)
Ceiling: indefinite ceiling with vertical visibility of 300 feet AGL
Clouds: obscured sky
Weather: FG  (fog)
Text: BECMG 2204/2208 CAVOK
Forecast period: 0400 to 1500 UTC 22 February 2019
Forecast type: BECOMING: Conditions expected to become as follows by 0800 UTC 22 February 2019
Winds: variable direction winds at 2 MPH (2 knots; 1.0 m/s)
Visibility: 6 or more miles 10+ km)
Ceiling: unknown
Clouds: missing
Weather: NSW  (no significant weather)
Text: BECMG 2215/2218 SCT040 BKN100
Forecast period: 1500 to 1800 UTC 22 February 2019
Forecast type: BECOMING: Conditions expected to become as follows by 1800 UTC 22 February 2019
Winds: variable direction winds at 2 MPH (2 knots; 1.0 m/s)
Visibility: 6 or more miles 10+ km)
Ceiling: 10000 feet AGL
Clouds: scattered clouds at 4000 feet AGL
broken clouds at 10000 feet AGL
Weather: NSW  (no significant weather)
Text: BECMG 2218/2221 -SHRA BKN025 BKN090
Forecast period: 1800 UTC 22 February 2019 to 0000 UTC 23 February 2019
Forecast type: BECOMING: Conditions expected to become as follows by 2100 UTC 22 February 2019
Winds: variable direction winds at 2 MPH (2 knots; 1.0 m/s)
Visibility: 6 or more miles 10+ km)
Ceiling: 2500 feet AGL
Clouds: broken clouds at 2500 feet AGL
broken clouds at 9000 feet AGL
Weather: -SHRA  (light rain showers)